Time;durP1;ratioP1;P1;durP2;ratioP2;P2;SDS_P1;SDS_P2;PMS_P1;PMS_P2;Temp;Humidity;BMP_temperature;BMP_pressure;BME280_temperature;BME280_humidity;BME280_pressure;Samples;Min_cycle;Max_cycle;Signal;HPM_P1;HPM_P2
2021/03/03 00:01:04;;;;;;;55.45;21.95;;;6.80;99.10;;;;;;4822113;29;20095;-79
2021/03/03 00:03:30;;;;;;;49.95;20.13;;;6.70;98.90;;;;;;4821446;29;20425;-78
2021/03/03 00:05:55;;;;;;;46.92;19.92;;;6.70;98.90;;;;;;4822048;29;20098;-78
2021/03/03 00:08:21;;;;;;;47.85;20.55;;;6.60;98.50;;;;;;4821430;29;20088;-80
2021/03/03 00:10:46;;;;;;;50.42;20.27;;;6.40;98.30;;;;;;4823818;29;20029;-79
2021/03/03 00:13:12;;;;;;;48.80;19.50;;;6.30;98.90;;;;;;4821831;29;20529;-80
2021/03/03 00:15:38;;;;;;;45.38;19.58;;;6.20;98.50;;;;;;4822075;29;20466;-79
2021/03/03 00:18:03;;;;;;;48.22;20.00;;;6.20;98.50;;;;;;4791043;29;20057;-79
2021/03/03 00:20:29;;;;;;;51.50;21.70;;;6.10;98.50;;;;;;4805805;29;20030;-77
2021/03/03 00:22:54;;;;;;;53.25;20.38;;;6.10;98.90;;;;;;4823305;29;20072;-79
2021/03/03 00:25:21;;;;;;;47.08;19.58;;;6.00;98.80;;;;;;4822211;29;20045;-78
2021/03/03 00:27:46;;;;;;;57.50;22.02;;;5.90;98.60;;;;;;4821996;29;20057;-79
2021/03/03 00:30:13;;;;;;;47.53;21.17;;;5.90;99.30;;;;;;4805649;29;20034;-79
2021/03/03 00:32:39;;;;;;;49.07;20.27;;;6.00;99.10;;;;;;4805179;29;20038;-77
2021/03/03 00:35:06;;;;;;;47.47;20.00;;;6.00;99.30;;;;;;4823275;29;20133;-79
2021/03/03 00:37:31;;;;;;;53.50;20.90;;;6.30;99.60;;;;;;4821900;29;20543;-79
2021/03/03 00:39:57;;;;;;;55.15;22.38;;;6.40;99.80;;;;;;4805234;29;20049;-78
2021/03/03 00:42:22;;;;;;;60.67;21.90;;;6.40;99.50;;;;;;4805392;29;20288;-78
2021/03/03 00:44:48;;;;;;;50.22;19.67;;;6.30;98.80;;;;;;4805208;29;20064;-78
2021/03/03 00:47:14;;;;;;;53.50;20.73;;;6.20;98.90;;;;;;4822417;29;20098;-78
2021/03/03 00:49:39;;;;;;;55.63;21.25;;;6.00;98.50;;;;;;4820840;29;20046;-78
2021/03/03 00:52:05;;;;;;;51.22;19.08;;;6.10;98.70;;;;;;4821071;29;20039;-77
2021/03/03 00:54:31;;;;;;;48.13;19.40;;;6.20;98.80;;;;;;4804793;29;20057;-78
2021/03/03 00:56:56;;;;;;;47.85;19.98;;;6.20;98.80;;;;;;4820876;29;20039;-78
2021/03/03 00:59:22;;;;;;;48.03;19.10;;;6.20;98.80;;;;;;4820291;29;20399;-80
2021/03/03 01:01:47;;;;;;;49.47;19.85;;;6.20;98.40;;;;;;4805570;29;20026;-79
2021/03/03 01:04:13;;;;;;;49.00;20.52;;;6.10;98.50;;;;;;4820428;29;20137;-79
2021/03/03 01:06:39;;;;;;;57.63;20.52;;;6.10;98.50;;;;;;4820409;29;20070;-79
2021/03/03 01:09:05;;;;;;;49.28;19.90;;;6.10;98.60;;;;;;4820718;29;20117;-78
2021/03/03 01:11:31;;;;;;;44.15;18.73;;;5.90;98.00;;;;;;4820659;29;20065;-79
2021/03/03 01:13:57;;;;;;;42.20;17.17;;;5.80;97.90;;;;;;4821914;29;20533;-78
2021/03/03 01:16:22;;;;;;;43.22;17.58;;;5.60;97.90;;;;;;4820493;29;20056;-78
2021/03/03 01:18:48;;;;;;;40.42;17.23;;;5.60;98.10;;;;;;4820459;29;20069;-78
2021/03/03 01:21:13;;;;;;;39.95;17.77;;;5.50;98.10;;;;;;4820061;29;20054;-79
2021/03/03 01:23:39;;;;;;;41.42;17.85;;;5.40;98.00;;;;;;4820212;29;20041;-79
2021/03/03 01:26:05;;;;;;;38.20;16.52;;;5.50;98.30;;;;;;4805600;29;20026;-78
2021/03/03 01:28:31;;;;;;;42.17;17.60;;;5.40;98.30;;;;;;4820242;29;20346;-78
2021/03/03 01:30:56;;;;;;;40.33;17.13;;;5.40;98.30;;;;;;4820322;29;20111;-78
2021/03/03 01:33:30;;;;;;;46.90;18.98;;;5.60;98.30;;;;;;4820360;29;20164;-77
2021/03/03 01:35:56;;;;;;;47.10;18.88;;;5.60;98.30;;;;;;4820338;29;20313;-78
2021/03/03 01:38:23;;;;;;;43.35;18.15;;;5.60;98.20;;;;;;4821605;29;20054;-79
2021/03/03 01:40:49;;;;;;;42.05;18.48;;;5.50;98.30;;;;;;4824873;29;20031;-78
2021/03/03 01:43:15;;;;;;;41.70;18.48;;;5.40;98.20;;;;;;4823591;29;20050;-77
2021/03/03 01:45:41;;;;;;;38.90;17.73;;;5.50;98.20;;;;;;4823463;29;20046;-79
2021/03/03 01:48:08;;;;;;;41.45;18.00;;;5.40;98.10;;;;;;4823201;29;20046;-79
2021/03/03 01:50:34;;;;;;;42.17;17.48;;;5.30;98.00;;;;;;4823333;29;20031;-77
2021/03/03 01:53:00;;;;;;;38.08;16.88;;;5.30;98.00;;;;;;4824667;29;20595;-78
2021/03/03 01:55:26;;;;;;;40.22;17.38;;;5.20;98.00;;;;;;4822899;29;20062;-78
2021/03/03 01:57:52;;;;;;;43.75;18.08;;;5.20;98.00;;;;;;4823134;29;20133;-78
2021/03/03 02:00:18;;;;;;;38.40;17.05;;;5.20;98.00;;;;;;4823079;29;20050;-77
2021/03/03 02:02:44;;;;;;;44.28;16.63;;;5.20;97.90;;;;;;4806426;29;20496;-77
2021/03/03 02:05:11;;;;;;;41.83;17.33;;;5.20;98.20;;;;;;4824603;29;20107;-77
2021/03/03 02:07:49;;;;;;;41.95;17.65;;;5.20;98.10;;;;;;4823004;29;20060;-76
2021/03/03 02:10:19;;;;;;;40.03;17.42;;;5.10;98.00;;;;;;4823033;29;20126;-75
2021/03/03 02:13:06;;;;;;;44.88;16.60;;;5.10;98.30;;;;;;4822596;29;20037;-76
2021/03/03 02:15:34;;;;;;;42.78;17.50;;;5.20;98.40;;;;;;4822864;29;20129;-77
2021/03/03 02:18:02;;;;;;;41.53;17.45;;;5.30;98.20;;;;;;4822932;29;20038;-77
2021/03/03 02:20:30;;;;;;;;;;;5.20;98.40;;;;;;4823208;29;20454;-76
2021/03/03 02:23:19;;;;;;;42.67;18.27;;;5.20;98.10;;;;;;4808279;29;19920;-76
2021/03/03 02:25:45;;;;;;;36.65;16.45;;;5.00;98.00;;;;;;4823339;29;20086;-77
2021/03/03 02:28:12;;;;;;;43.00;18.73;;;5.00;98.10;;;;;;4806383;29;20038;-77
2021/03/03 02:30:40;;;;;;;43.97;18.13;;;5.00;98.00;;;;;;4806555;29;20046;-77
2021/03/03 02:33:08;;;;;;;49.00;18.27;;;4.80;98.00;;;;;;4822545;29;20054;-77
2021/03/03 02:35:34;;;;;;;;;;;4.70;98.00;;;;;;4823227;29;20039;-77
2021/03/03 02:38:03;;;;;;;43.33;18.40;;;4.80;98.20;;;;;;4824376;29;19920;-76
2021/03/03 02:40:29;;;;;;;39.22;16.92;;;4.80;98.20;;;;;;4822611;29;20069;-77
2021/03/03 02:42:56;;;;;;;44.15;17.80;;;4.80;98.20;;;;;;4822550;29;20042;-77
2021/03/03 02:45:24;;;;;;;44.92;17.23;;;4.70;98.20;;;;;;4822640;29;20039;-77
2021/03/03 02:47:51;;;;;;;41.50;16.45;;;4.70;98.10;;;;;;4821991;29;20491;-76
2021/03/03 02:50:17;;;;;;;42.90;18.95;;;4.70;98.00;;;;;;4806970;29;20054;-76
2021/03/03 02:52:53;;;;;;;42.08;17.70;;;4.70;98.00;;;;;;4822896;29;20512;-77
2021/03/03 02:55:21;;;;;;;44.45;17.25;;;4.60;98.20;;;;;;4806287;29;20107;-78
2021/03/03 02:57:47;;;;;;;35.10;15.40;;;4.60;98.10;;;;;;4822429;29;20060;-77
2021/03/03 03:00:35;;;;;;;40.30;17.25;;;4.60;98.10;;;;;;4822358;29;20203;-78
2021/03/03 03:03:11;;;;;;;39.00;16.27;;;4.70;98.20;;;;;;4821277;29;20087;-77
2021/03/03 03:05:41;;;;;;;37.95;16.23;;;4.70;98.20;;;;;;4806198;29;20058;-77
2021/03/03 03:08:11;;;;;;;37.05;15.70;;;4.70;98.20;;;;;;4807661;29;20042;-78
2021/03/03 03:10:38;;;;;;;37.22;16.13;;;4.80;98.30;;;;;;4806101;29;20046;-78
2021/03/03 03:13:06;;;;;;;42.85;17.30;;;4.70;98.20;;;;;;4822256;29;20046;-78
2021/03/03 03:15:33;;;;;;;40.83;16.38;;;4.60;98.40;;;;;;4821776;29;20065;-78
2021/03/03 03:18:05;;;;;;;41.25;17.48;;;4.60;98.40;;;;;;4821835;29;20612;-76
2021/03/03 03:20:34;;;;;;;34.22;14.85;;;4.50;98.30;;;;;;4821944;29;20057;-77
2021/03/03 03:23:03;;;;;;;34.72;15.80;;;4.50;98.30;;;;;;4823417;29;20039;-76
2021/03/03 03:25:29;;;;;;;36.25;15.55;;;4.60;98.30;;;;;;4805907;29;20527;-78
2021/03/03 03:27:57;;;;;;;37.58;15.90;;;4.50;98.30;;;;;;4821743;29;20038;-78
2021/03/03 03:30:24;;;;;;;36.38;15.98;;;4.50;98.30;;;;;;4821687;29;20042;-77
2021/03/03 03:32:50;;;;;;;33.45;13.93;;;4.50;98.30;;;;;;4821590;29;20046;-77
2021/03/03 03:35:17;;;;;;;39.42;15.80;;;4.60;98.60;;;;;;4823250;29;20046;-77
2021/03/03 03:37:43;;;;;;;40.38;14.70;;;4.60;98.50;;;;;;4822239;29;20127;-77
2021/03/03 03:40:09;;;;;;;34.53;15.05;;;4.80;98.50;;;;;;4805369;29;20088;-78
2021/03/03 03:42:38;;;;;;;38.05;15.65;;;4.60;98.30;;;;;;4821554;29;20042;-78
2021/03/03 03:45:05;;;;;;;36.33;15.43;;;4.50;98.50;;;;;;4821507;29;20042;-78
2021/03/03 03:47:31;;;;;;;34.60;15.00;;;4.50;98.60;;;;;;4805189;29;20034;-77
2021/03/03 03:50:05;;;;;;;30.88;13.82;;;4.50;98.90;;;;;;4823097;29;20053;-77
2021/03/03 03:52:31;;;;;;;32.88;13.73;;;4.60;98.70;;;;;;4821479;29;20038;-77
2021/03/03 03:54:57;;;;;;;33.58;15.18;;;4.60;98.60;;;;;;4821116;29;20137;-78
2021/03/03 03:57:23;;;;;;;32.90;13.40;;;4.60;98.50;;;;;;4821505;29;20114;-76
2021/03/03 03:59:49;;;;;;;32.40;14.23;;;4.70;98.50;;;;;;4805441;29;20062;-77
2021/03/03 04:02:15;;;;;;;31.70;13.90;;;4.70;98.60;;;;;;4822427;29;20049;-76
2021/03/03 04:04:42;;;;;;;30.77;13.82;;;4.90;98.70;;;;;;4821650;29;20142;-78
2021/03/03 04:07:07;;;;;;;34.45;14.32;;;4.70;98.60;;;;;;4804781;29;20050;-77
2021/03/03 04:09:33;;;;;;;31.35;13.10;;;4.60;98.60;;;;;;4821067;29;20030;-78
2021/03/03 04:11:59;;;;;;;29.63;13.40;;;4.70;98.60;;;;;;4821282;29;20125;-79
2021/03/03 04:14:25;;;;;;;25.35;11.15;;;4.70;99.00;;;;;;4821598;29;20022;-78
2021/03/03 04:16:52;;;;;;;24.52;10.65;;;4.80;98.90;;;;;;4822960;29;20030;-79
2021/03/03 04:19:18;;;;;;;24.25;11.32;;;4.80;99.00;;;;;;4821132;29;20073;-78
2021/03/03 04:21:44;;;;;;;27.70;11.88;;;4.90;99.20;;;;;;4804902;29;20126;-76
2021/03/03 04:24:10;;;;;;;25.02;11.32;;;4.90;99.10;;;;;;4820962;29;20049;-78
2021/03/03 04:26:35;;;;;;;22.85;10.77;;;5.00;99.00;;;;;;4821107;29;20370;-78
2021/03/03 04:29:01;;;;;;;25.70;11.05;;;5.10;98.90;;;;;;4822581;29;20476;-77
2021/03/03 04:31:27;;;;;;;26.88;11.55;;;5.10;98.80;;;;;;4820666;29;20056;-77
2021/03/03 04:33:52;;;;;;;28.45;12.20;;;5.00;98.80;;;;;;4820997;29;20122;-76
2021/03/03 04:36:18;;;;;;;27.20;12.13;;;5.00;98.60;;;;;;4820865;29;20362;-79
2021/03/03 04:38:43;;;;;;;24.00;11.15;;;5.00;98.70;;;;;;4804675;29;20110;-77
2021/03/03 04:41:09;;;;;;;23.38;10.27;;;5.00;98.90;;;;;;4822615;29;20026;-77
2021/03/03 04:43:35;;;;;;;24.25;11.63;;;5.10;99.10;;;;;;4820815;29;20085;-78
2021/03/03 04:46:02;;;;;;;23.63;10.70;;;5.20;98.90;;;;;;4820801;29;20120;-77
2021/03/03 04:48:27;;;;;;;26.50;9.90;;;5.10;98.70;;;;;;4820689;29;20429;-78
2021/03/03 04:50:53;;;;;;;28.83;12.30;;;5.20;98.80;;;;;;4820386;29;20045;-76
2021/03/03 04:53:19;;;;;;;21.50;10.32;;;5.20;98.70;;;;;;4804266;29;20065;-79
2021/03/03 04:55:45;;;;;;;23.88;10.63;;;5.20;99.00;;;;;;4822199;29;20037;-79
2021/03/03 04:58:11;;;;;;;23.38;10.32;;;5.20;99.00;;;;;;4820602;29;20049;-77
2021/03/03 05:00:36;;;;;;;22.10;10.27;;;5.30;98.80;;;;;;4820600;29;20124;-77
2021/03/03 05:03:02;;;;;;;25.15;10.30;;;5.40;98.80;;;;;;4820250;29;20077;-78
2021/03/03 05:05:28;;;;;;;22.65;10.15;;;5.30;98.60;;;;;;4804323;29;20095;-77
2021/03/03 05:07:54;;;;;;;22.75;9.90;;;5.30;98.60;;;;;;4822159;29;20396;-77
2021/03/03 05:10:20;;;;;;;23.50;10.40;;;5.30;98.40;;;;;;4820610;29;20042;-78
2021/03/03 05:12:45;;;;;;;23.23;11.02;;;5.20;98.50;;;;;;4820184;29;20045;-77
2021/03/03 05:15:11;;;;;;;21.88;9.80;;;5.20;98.50;;;;;;4804122;29;20042;-76
2021/03/03 05:17:37;;;;;;;19.33;8.90;;;5.20;98.60;;;;;;4820175;29;20098;-78
2021/03/03 05:20:05;;;;;;;19.55;9.65;;;5.20;98.60;;;;;;4821996;29;20061;-78
2021/03/03 05:22:31;;;;;;;25.05;10.50;;;5.30;98.80;;;;;;4804278;29;20464;-77
2021/03/03 05:24:57;;;;;;;21.67;9.68;;;5.30;98.80;;;;;;4820423;29;20457;-77
2021/03/03 05:27:22;;;;;;;24.13;9.60;;;5.30;98.90;;;;;;4804009;29;20428;-78
2021/03/03 05:29:48;;;;;;;20.83;9.95;;;5.40;98.90;;;;;;4804132;29;20031;-78
2021/03/03 05:32:13;;;;;;;20.60;10.35;;;5.40;98.90;;;;;;4805736;29;20125;-78
2021/03/03 05:34:39;;;;;;;20.40;9.38;;;5.40;98.90;;;;;;4820487;29;20046;-77
2021/03/03 05:37:04;;;;;;;19.08;9.98;;;5.40;99.00;;;;;;4820603;29;20038;-78
2021/03/03 05:39:30;;;;;;;21.70;9.93;;;5.50;98.90;;;;;;4804178;29;20038;-77
2021/03/03 05:42:02;;;;;;;22.08;9.45;;;5.50;99.00;;;;;;4820082;29;20031;-77
2021/03/03 05:44:28;;;;;;;24.25;9.68;;;5.50;98.90;;;;;;4820322;29;20037;-77
2021/03/03 05:46:57;;;;;;;23.38;10.20;;;5.40;99.00;;;;;;4821677;29;20101;-77
2021/03/03 05:49:25;;;;;;;24.10;9.65;;;5.50;99.30;;;;;;4820279;29;20076;-78
2021/03/03 05:51:51;;;;;;;;;;;5.60;99.00;;;;;;4820682;29;20050;-78
2021/03/03 05:54:17;;;;;;;20.73;9.23;;;5.60;98.90;;;;;;4819993;29;19916;-79
2021/03/03 05:56:45;;;;;;;25.88;9.98;;;5.60;98.90;;;;;;4820473;29;20041;-79
2021/03/03 05:59:12;;;;;;;20.02;9.55;;;5.70;98.90;;;;;;4822518;29;20027;-79
2021/03/03 06:01:39;;;;;;;21.98;9.93;;;5.70;98.80;;;;;;4803875;29;20073;-78
2021/03/03 06:04:06;;;;;;;19.97;9.80;;;5.60;98.90;;;;;;4819759;29;20054;-80
2021/03/03 06:06:31;;;;;;;21.58;9.80;;;5.70;98.90;;;;;;4820549;29;20039;-77
2021/03/03 06:08:57;;;;;;;26.25;10.88;;;5.70;98.90;;;;;;4819756;29;20695;-77
2021/03/03 06:11:23;;;;;;;21.83;9.70;;;5.70;99.00;;;;;;4820411;29;20031;-79
2021/03/03 06:13:48;;;;;;;25.15;9.65;;;5.80;99.00;;;;;;4821749;29;20034;-77
2021/03/03 06:16:16;;;;;;;22.67;9.63;;;5.80;98.90;;;;;;4820107;29;20573;-78
2021/03/03 06:18:42;;;;;;;23.92;11.05;;;5.80;99.00;;;;;;4819822;29;20443;-78
2021/03/03 06:21:27;;;;;;;25.88;11.10;;;5.90;99.00;;;;;;4819888;29;20449;-76
2021/03/03 06:24:10;;;;;;;24.05;11.73;;;5.90;98.90;;;;;;4820949;29;20074;-79
2021/03/03 06:26:54;;;;;;;22.48;10.25;;;5.90;98.90;;;;;;4825241;29;20102;-78
2021/03/03 06:29:19;;;;;;;20.10;9.75;;;6.00;98.90;;;;;;4824949;29;20406;-78
2021/03/03 06:31:46;;;;;;;19.33;9.57;;;6.10;98.70;;;;;;4826734;29;20105;-78
2021/03/03 06:34:18;;;;;;;19.57;9.93;;;6.00;98.70;;;;;;4809061;29;20350;-79
2021/03/03 06:36:57;;;;;;;27.33;11.10;;;6.00;98.80;;;;;;4824759;29;20125;-78
2021/03/03 06:39:32;;;;;;;22.88;10.57;;;6.00;98.70;;;;;;4824097;29;20043;-78
2021/03/03 06:42:00;;;;;;;23.38;10.63;;;6.10;98.80;;;;;;4823729;29;20038;-78
2021/03/03 06:44:45;;;;;;;20.88;10.57;;;6.10;98.90;;;;;;4824128;29;20033;-81
2021/03/03 06:47:11;;;;;;;23.13;10.30;;;6.20;99.00;;;;;;4824600;29;20031;-79
2021/03/03 06:49:37;;;;;;;23.63;10.52;;;6.20;98.90;;;;;;4823999;29;20063;-80
2021/03/03 06:52:03;;;;;;;25.20;11.48;;;6.20;98.80;;;;;;4823466;29;20051;-81
2021/03/03 06:54:28;;;;;;;29.25;11.55;;;6.30;98.80;;;;;;4823329;29;20077;-78
2021/03/03 06:56:56;;;;;;;23.38;10.55;;;6.40;98.80;;;;;;4822702;29;20048;-78
2021/03/03 06:59:26;;;;;;;25.95;11.10;;;6.50;98.80;;;;;;4822592;29;20030;-79
2021/03/03 07:01:53;;;;;;;29.30;11.55;;;6.60;98.70;;;;;;4824119;29;20037;-78
2021/03/03 07:04:27;;;;;;;26.17;11.35;;;6.60;98.60;;;;;;4822189;29;20140;-80
2021/03/03 07:07:10;;;;;;;24.77;11.80;;;6.70;98.50;;;;;;4822902;29;20050;-80
2021/03/03 07:09:41;;;;;;;26.05;11.95;;;6.70;98.40;;;;;;4821609;29;20074;-77
2021/03/03 07:12:09;;;;;;;24.10;11.35;;;6.70;98.50;;;;;;4804021;29;20050;-77
2021/03/03 07:14:35;;;;;;;30.33;12.10;;;6.70;98.40;;;;;;4804287;29;20164;-78
2021/03/03 07:17:09;;;;;;;26.23;12.00;;;6.70;98.50;;;;;;4805189;29;20073;-79
2021/03/03 07:19:37;;;;;;;31.52;12.27;;;6.80;98.50;;;;;;4787894;29;20136;-77
2021/03/03 07:22:06;;;;;;;27.58;12.93;;;6.90;98.50;;;;;;4787965;29;20054;-78
2021/03/03 07:24:34;;;;;;;26.73;12.23;;;6.90;98.40;;;;;;4787912;29;20475;-78
2021/03/03 07:27:02;;;;;;;25.50;11.65;;;6.90;98.30;;;;;;4803602;29;20142;-76
2021/03/03 07:29:29;;;;;;;31.10;13.23;;;7.00;98.50;;;;;;4803619;29;20286;-79
2021/03/03 07:31:55;;;;;;;29.25;13.32;;;7.00;98.40;;;;;;4805074;29;20034;-77
2021/03/03 07:34:21;;;;;;;27.15;12.35;;;7.10;98.20;;;;;;4803778;29;20034;-77
2021/03/03 07:36:49;;;;;;;28.70;12.60;;;7.20;98.30;;;;;;4803092;29;20274;-76
2021/03/03 07:39:18;;;;;;;23.25;12.27;;;7.20;98.30;;;;;;4787537;29;20523;-77
2021/03/03 07:41:45;;;;;;;29.73;13.50;;;7.30;98.10;;;;;;4787584;29;20038;-79
2021/03/03 07:44:15;;;;;;;22.50;11.35;;;7.40;98.10;;;;;;4805163;29;20054;-78
2021/03/03 07:46:42;;;;;;;25.35;12.13;;;7.50;98.00;;;;;;4802349;29;20035;-77
2021/03/03 07:49:12;;;;;;;33.78;12.57;;;7.60;97.90;;;;;;4803156;29;20067;-80
2021/03/03 07:51:43;;;;;;;34.88;14.05;;;7.70;98.00;;;;;;4803006;29;20206;-79
2021/03/03 07:54:11;;;;;;;31.50;14.05;;;7.80;97.70;;;;;;4787114;29;20085;-79
2021/03/03 07:56:38;;;;;;;25.75;12.88;;;7.80;97.70;;;;;;4787086;29;20778;-77
2021/03/03 07:59:08;;;;;;;28.65;13.90;;;7.90;97.80;;;;;;4788825;29;20110;-80
2021/03/03 08:01:35;;;;;;;27.42;12.40;;;8.00;97.50;;;;;;4803055;29;20031;-81
2021/03/03 08:04:01;;;;;;;35.33;15.48;;;8.00;97.30;;;;;;4783665;29;20054;-79
2021/03/03 08:06:37;;;;;;;29.35;12.27;;;8.10;97.30;;;;;;4785215;29;20051;-79
2021/03/03 08:09:06;;;;;;;26.80;12.60;;;8.20;97.00;;;;;;4784563;29;20533;-80
2021/03/03 08:11:33;;;;;;;30.20;12.43;;;8.30;96.90;;;;;;4784985;29;20225;-81
2021/03/03 08:13:59;;;;;;;30.80;12.30;;;8.40;97.00;;;;;;4785555;30;20061;-81
2021/03/03 08:16:25;;;;;;;23.77;11.15;;;8.60;96.70;;;;;;4784778;29;20051;-82
2021/03/03 08:18:57;;;;;;;25.33;11.75;;;8.70;96.80;;;;;;4785061;29;20039;-81
2021/03/03 08:21:23;;;;;;;23.23;11.38;;;8.80;96.60;;;;;;4798699;29;20237;-80
2021/03/03 08:23:57;;;;;;;29.55;12.70;;;9.00;96.30;;;;;;4784699;29;20118;-80
2021/03/03 08:26:23;;;;;;;20.83;11.73;;;9.10;96.00;;;;;;4784470;29;20092;-80
2021/03/03 08:28:50;;;;;;;22.48;11.43;;;9.20;96.10;;;;;;4786030;30;20049;-81
2021/03/03 08:31:17;;;;;;;27.08;11.20;;;9.40;96.00;;;;;;4783730;29;20039;-76
2021/03/03 08:33:54;;;;;;;22.92;11.32;;;9.50;95.90;;;;;;4784678;29;20043;-78
2021/03/03 08:36:26;;;;;;;28.85;11.88;;;9.60;95.60;;;;;;4783751;30;20082;-79
2021/03/03 08:38:54;;;;;;;24.52;11.35;;;9.80;95.40;;;;;;4784424;29;20075;-75
2021/03/03 08:41:23;;;;;;;23.08;11.25;;;9.90;95.40;;;;;;4784754;29;20404;-78
2021/03/03 08:44:15;;;;;;;27.35;12.43;;;10.00;94.70;;;;;;4786142;30;20126;-77
2021/03/03 08:46:42;;;;;;;25.27;11.80;;;10.10;94.50;;;;;;4783452;29;20039;-78
2021/03/03 08:49:08;;;;;;;26.15;12.65;;;10.20;94.30;;;;;;4782349;29;20482;-78
2021/03/03 08:51:33;;;;;;;26.58;11.88;;;10.30;94.20;;;;;;4784951;29;20051;-82
2021/03/03 08:54:00;;;;;;;24.10;10.88;;;10.50;94.10;;;;;;4782864;29;20140;-81
2021/03/03 08:56:48;;;;;;;27.73;11.07;;;10.60;94.10;;;;;;4784024;29;20347;-83
2021/03/03 08:59:14;;;;;;;21.45;10.15;;;10.80;93.60;;;;;;4785775;29;20033;-81
2021/03/03 09:01:55;;;;;;;22.20;10.70;;;11.00;93.60;;;;;;4782999;29;20132;-80
2021/03/03 09:04:31;;;;;;;24.27;10.45;;;11.40;93.40;;;;;;4800253;29;20137;-81
2021/03/03 09:06:59;;;;;;;29.05;11.40;;;11.80;93.10;;;;;;4801585;29;20047;-82
2021/03/03 09:09:26;;;;;;;19.13;9.90;;;12.20;92.70;;;;;;4802725;29;20446;-81
2021/03/03 09:12:03;;;;;;;20.40;10.77;;;12.50;91.80;;;;;;4802587;29;20042;-80
2021/03/03 09:14:30;;;;;;;29.08;10.57;;;12.70;91.60;;;;;;4802412;29;20042;-82
2021/03/03 09:17:20;;;;;;;28.90;10.75;;;13.00;91.30;;;;;;4804840;29;20046;-80
2021/03/03 09:19:47;;;;;;;20.55;10.00;;;13.30;90.90;;;;;;4802449;29;20031;-80
2021/03/03 09:22:23;;;;;;;21.90;10.75;;;13.70;90.40;;;;;;4786459;29;20039;-78
2021/03/03 09:24:50;;;;;;;20.90;9.93;;;13.90;89.30;;;;;;4786528;29;20548;-82
2021/03/03 09:27:16;;;;;;;25.80;10.20;;;14.00;87.60;;;;;;4786416;29;20042;-81
2021/03/03 09:29:42;;;;;;;20.77;9.70;;;14.00;86.90;;;;;;4785551;29;20061;-81
2021/03/03 09:32:10;;;;;;;21.75;10.10;;;14.00;86.40;;;;;;4787504;29;20027;-83
2021/03/03 09:34:43;;;;;;;23.27;10.13;;;14.10;85.70;;;;;;4801844;29;20043;-81
2021/03/03 09:37:09;;;;;;;22.92;10.63;;;14.00;86.00;;;;;;4801739;29;20066;-80
2021/03/03 09:39:35;;;;;;;22.65;10.23;;;14.10;85.60;;;;;;4802102;29;20450;-84
2021/03/03 09:42:07;;;;;;;26.17;12.55;;;14.10;85.70;;;;;;4786343;29;20047;-82
2021/03/03 09:44:53;;;;;;;23.67;10.90;;;14.20;86.30;;;;;;4802409;29;20034;-81
2021/03/03 09:47:30;;;;;;;24.67;11.15;;;14.20;85.10;;;;;;4801718;29;20019;-80
2021/03/03 09:49:58;;;;;;;25.77;10.98;;;14.20;84.90;;;;;;4802815;29;20033;-80
2021/03/03 09:52:45;;;;;;;25.67;10.60;;;14.10;84.80;;;;;;4785925;29;20122;-81
2021/03/03 09:55:15;;;;;;;22.63;9.80;;;14.30;85.40;;;;;;4785536;29;20132;-80
2021/03/03 09:57:55;;;;;;;20.52;10.70;;;14.60;85.20;;;;;;4801635;29;20051;-80
2021/03/03 10:00:35;;;;;;;23.02;10.10;;;15.10;83.60;;;;;;4787963;29;20485;-80
2021/03/03 10:03:04;;;;;;;20.77;10.07;;;15.40;83.20;;;;;;4789061;29;20099;-79
2021/03/03 10:05:32;;;;;;;19.35;9.82;;;16.20;81.10;;;;;;4789108;29;20370;-80
2021/03/03 10:08:06;;;;;;;23.38;11.35;;;16.80;79.40;;;;;;4806279;29;20108;-80
2021/03/03 10:10:38;;;;;;;24.45;10.48;;;17.10;76.90;;;;;;4804840;29;20070;-81
2021/03/03 10:13:05;;;;;;;18.77;9.82;;;17.00;74.70;;;;;;4805117;29;20062;-81
2021/03/03 10:15:39;;;;;;;21.30;10.43;;;17.20;75.70;;;;;;4789103;29;20047;-80
2021/03/03 10:18:09;;;;;;;19.60;9.38;;;17.60;73.50;;;;;;4804985;29;20043;-80
2021/03/03 10:20:41;;;;;;;18.38;9.27;;;17.70;72.80;;;;;;4788674;29;20103;-77
2021/03/03 10:23:14;;;;;;;20.77;9.75;;;17.90;71.90;;;;;;4806131;29;20704;-78
2021/03/03 10:25:52;;;;;;;17.50;9.43;;;17.50;71.30;;;;;;4804365;29;20363;-80
2021/03/03 10:28:20;;;;;;;19.38;9.50;;;17.50;70.30;;;;;;4804656;29;20062;-78
2021/03/03 10:30:59;;;;;;;18.95;9.43;;;17.40;69.10;;;;;;4804491;29;20050;-77
2021/03/03 10:33:33;;;;;;;24.50;9.65;;;17.20;69.50;;;;;;4804454;29;20047;-77
2021/03/03 10:36:02;;;;;;;18.10;8.90;;;17.20;68.90;;;;;;4804328;29;20615;-78
2021/03/03 10:38:28;;;;;;;21.25;8.88;;;17.30;68.60;;;;;;4787992;29;20049;-78
2021/03/03 10:40:57;;;;;;;21.42;9.63;;;17.30;68.10;;;;;;4805968;29;20023;-78
2021/03/03 10:43:25;;;;;;;20.50;9.38;;;17.60;68.40;;;;;;4804601;29;20046;-77
2021/03/03 10:46:14;;;;;;;23.55;10.10;;;17.50;67.40;;;;;;4804171;29;20473;-77
2021/03/03 10:48:40;;;;;;;24.92;10.05;;;17.40;68.00;;;;;;4788381;29;20131;-77
2021/03/03 10:51:07;;;;;;;20.58;9.40;;;17.50;67.30;;;;;;4804233;29;20177;-78
2021/03/03 10:53:58;;;;;;;23.63;9.80;;;17.50;66.30;;;;;;4803890;29;20045;-78
2021/03/03 10:56:35;;;;;;;17.20;9.48;;;17.60;65.70;;;;;;4804168;29;20477;-79
2021/03/03 10:59:04;;;;;;;22.58;10.07;;;17.90;66.50;;;;;;4805736;29;20037;-79
2021/03/03 11:01:46;;;;;;;;;;;18.30;64.80;;;;;;4804195;29;20130;-77
2021/03/03 11:04:12;;;;;;;18.75;9.25;;;18.40;64.20;;;;;;4803430;29;19925;-78
2021/03/03 11:06:38;;;;;;;21.45;9.80;;;18.40;63.60;;;;;;4804190;29;20046;-79
2021/03/03 11:09:11;;;;;;;22.38;11.02;;;18.50;64.20;;;;;;4803765;29;20070;-79
2021/03/03 11:11:50;;;;;;;21.77;10.30;;;18.50;62.30;;;;;;4803023;29;20031;-77
2021/03/03 11:14:17;;;;;;;23.35;11.02;;;18.70;62.40;;;;;;4805754;29;20066;-79
2021/03/03 11:16:49;;;;;;;20.17;10.45;;;18.60;62.00;;;;;;4804666;29;20393;-79
2021/03/03 11:19:16;;;;;;;27.77;11.65;;;18.70;61.10;;;;;;4803799;29;20047;-80
2021/03/03 11:21:41;;;;;;;20.73;10.07;;;18.70;62.30;;;;;;4803311;29;20031;-79
2021/03/03 11:24:08;;;;;;;21.02;10.50;;;18.90;61.10;;;;;;4802716;29;20074;-79
2021/03/03 11:26:38;;;;;;;24.90;10.90;;;19.10;61.90;;;;;;4803572;29;20087;-77
2021/03/03 11:29:04;;;;;;;29.55;14.13;;;19.20;59.80;;;;;;4805223;29;20041;-80
2021/03/03 11:31:30;;;;;;;22.10;10.95;;;19.30;60.10;;;;;;4803727;29;20102;-78
2021/03/03 11:33:56;;;;;;;22.70;10.57;;;19.30;60.20;;;;;;4804121;29;20486;-78
2021/03/03 11:36:22;;;;;;;23.10;10.70;;;19.40;59.50;;;;;;4804005;29;20057;-78
2021/03/03 11:38:48;;;;;;;29.13;11.80;;;19.00;58.80;;;;;;4803648;29;20035;-77
2021/03/03 11:41:14;;;;;;;24.38;14.23;;;19.00;59.70;;;;;;4805296;29;20567;-76
2021/03/03 11:43:39;;;;;;;30.30;14.02;;;19.10;59.00;;;;;;4787054;29;20047;-76
2021/03/03 11:46:05;;;;;;;29.60;13.15;;;19.30;59.20;;;;;;4803457;29;20089;-76
2021/03/03 11:48:31;;;;;;;27.45;11.88;;;19.40;59.00;;;;;;4803505;29;20043;-76
2021/03/03 11:50:57;;;;;;;29.92;12.68;;;19.50;58.30;;;;;;4803551;29;20067;-77
2021/03/03 11:53:22;;;;;;;24.98;11.40;;;19.40;58.20;;;;;;4787016;29;20096;-77
2021/03/03 11:55:48;;;;;;;26.70;12.90;;;19.30;58.20;;;;;;4804779;29;20037;-76
2021/03/03 11:58:13;;;;;;;24.15;11.02;;;19.40;57.50;;;;;;4803133;29;20089;-76
2021/03/03 12:00:39;;;;;;;29.55;12.20;;;19.30;57.80;;;;;;4802121;29;20390;-77
2021/03/03 12:03:05;;;;;;;50.88;25.13;;;19.30;57.20;;;;;;4802879;29;20062;-78
2021/03/03 12:05:31;;;;;;;33.88;13.88;;;19.30;58.30;;;;;;4803804;29;20122;-80
2021/03/03 12:07:57;;;;;;;34.25;14.02;;;19.20;57.20;;;;;;4803491;29;20042;-79
2021/03/03 12:10:23;;;;;;;28.00;14.07;;;19.30;57.50;;;;;;4803005;29;20035;-78
2021/03/03 12:12:48;;;;;;;28.17;12.48;;;19.20;57.50;;;;;;4803183;29;20065;-79
2021/03/03 12:15:14;;;;;;;27.50;12.38;;;19.20;57.60;;;;;;4803390;29;20077;-78
2021/03/03 12:17:40;;;;;;;27.42;12.48;;;19.30;56.60;;;;;;4803218;29;20055;-81
2021/03/03 12:20:07;;;;;;;30.67;12.20;;;19.30;58.00;;;;;;4804511;29;20031;-80
2021/03/03 12:22:33;;;;;;;27.85;12.48;;;19.30;56.80;;;;;;4802428;29;20035;-76
2021/03/03 12:25:00;;;;;;;30.73;12.80;;;19.20;57.40;;;;;;4786647;29;20071;-76
2021/03/03 12:27:25;;;;;;;32.17;14.23;;;19.30;57.20;;;;;;4802648;29;20454;-76
2021/03/03 12:29:51;;;;;;;28.55;11.68;;;18.90;55.60;;;;;;4802721;29;20114;-77
2021/03/03 12:32:17;;;;;;;40.67;17.25;;;18.80;57.20;;;;;;4804039;29;20077;-76
2021/03/03 12:34:42;;;;;;;37.28;13.80;;;18.80;56.90;;;;;;4802978;29;20118;-76
2021/03/03 12:37:08;;;;;;;38.47;14.75;;;18.60;56.60;;;;;;4802250;29;20109;-76
2021/03/03 12:39:34;;;;;;;30.00;12.95;;;18.60;57.80;;;;;;4802664;29;20039;-75
2021/03/03 12:41:59;;;;;;;35.03;14.07;;;18.80;57.30;;;;;;4802551;29;20050;-76